.
WxDataArchive / Data Records for 2016-05-05
2016-05-04 May 2016 2016-05-06

Data Records for Thursday, 05 May 2016

Time	Temp	Chill	HIndex	Humid	Dewpt	 Wind 	HiWind	WindDir	Rain 	Barom
-----	----	-----	------	-----	-----	------	------	-------	-----	-----
00:00	39.3	39.3	39.3	90	36.6	0	0	---	0.00	29.704 
00:05	39.2	39.2	39.2	90	36.5	0	1	292	0.00	29.704 
00:10	39.2	39.2	39.2	91	36.8	0	0	---	0.00	29.704 
00:15	39.3	39.3	39.3	91	36.9	0	1	292	0.00	29.705 
00:20	39.2	39.2	39.2	91	36.8	0	0	---	0.00	29.705 
00:25	39.2	39.2	39.2	91	36.8	0	0	---	0.00	29.705 
00:30	39.2	39.2	39.2	91	36.8	0	0	---	0.00	29.704 
00:35	39.2	39.2	39.2	91	36.8	0	0	---	0.00	29.704 
00:40	39.1	39.1	39.1	91	36.7	0	0	---	0.00	29.704 
00:45	39.1	39.1	39.1	91	36.7	0	0	---	0.00	29.705 
00:50	38.9	38.9	38.9	92	36.8	0	0	---	0.00	29.705 
00:55	38.9	38.9	38.9	92	36.8	0	0	---	0.00	29.705 
01:00	38.8	38.8	38.8	92	36.7	0	0	---	0.00	29.711 
01:05	38.8	38.8	38.8	92	36.7	0	0	---	0.00	29.711 
01:10	38.8	38.8	38.8	92	36.7	0	0	---	0.00	29.711 
01:15	38.9	38.9	38.9	92	36.8	0	0	---	0.00	29.713 
01:20	39.1	39.1	39.1	92	37.0	0	0	---	0.00	29.713 
01:25	39.1	39.1	39.1	92	37.0	0	0	---	0.00	29.713 
01:30	39.2	39.2	39.2	92	37.1	0	0	---	0.00	29.716 
01:35	39.2	39.2	39.2	92	37.1	0	0	---	0.00	29.716 
01:40	39.3	39.3	39.3	92	37.2	0	0	---	0.00	29.716 
01:45	39.3	39.3	39.3	92	37.2	0	0	---	0.00	29.718 
01:50	39.3	39.3	39.3	92	37.2	0	0	---	0.00	29.718 
01:55	39.3	39.3	39.3	92	37.2	0	0	---	0.00	29.718 
02:00	39.3	39.3	39.3	92	37.2	0	0	---	0.00	29.722 
02:05	39.5	39.5	39.5	92	37.4	0	0	---	0.00	29.722 
02:10	39.5	39.5	39.5	93	37.6	0	1	292	0.00	29.722 
02:15	39.6	39.6	39.6	92	37.5	0	1	292	0.00	29.724 
02:20	39.6	39.6	39.6	92	37.5	0	0	---	0.00	29.724 
02:25	39.6	39.6	39.6	93	37.7	0	1	292	0.00	29.724 
02:30	39.6	39.6	39.6	93	37.7	0	0	---	0.00	29.721 
02:35	39.8	39.8	39.8	92	37.7	0	0	---	0.00	29.721 
02:40	39.8	39.8	39.8	92	37.7	0	0	---	0.00	29.721 
02:45	39.8	39.8	39.8	92	37.7	0	1	292	0.00	29.732 
02:50	39.8	39.8	39.8	92	37.7	0	3	292	0.00	29.732 
02:55	39.8	39.8	39.8	92	37.7	0	0	---	0.00	29.732 
03:00	39.9	39.9	39.9	92	37.8	0	1	292	0.00	29.731 
03:05	39.9	39.9	39.9	92	37.8	0	1	292	0.00	29.731 
03:10	39.9	39.9	39.9	92	37.8	0	1	292	0.00	29.731 
03:15	40.1	40.1	40.1	92	38.0	0	3	292	0.00	29.731 
03:20	40.1	40.1	40.1	92	38.0	0	1	292	0.00	29.731 
03:25	40.1	40.1	40.1	92	38.0	1	3	292	0.00	29.731 
03:30	40.1	40.1	40.1	92	38.0	0	2	292	0.00	29.730 
03:35	40.1	40.1	40.1	92	38.0	0	2	292	0.00	29.730 
03:40	40.1	40.1	40.1	92	38.0	0	3	90	0.00	29.730 
03:45	40.1	40.1	40.1	92	38.0	0	0	---	0.00	29.733 
03:50	40.1	40.1	40.1	92	38.0	0	0	---	0.00	29.733 
03:55	40.1	40.1	40.1	92	38.0	0	0	---	0.00	29.733 
04:00	40.1	40.1	40.1	92	38.0	0	0	---	0.00	29.732 
04:05	40.1	40.1	40.1	92	38.0	0	0	---	0.00	29.732 
04:10	39.9	39.9	39.9	92	37.8	0	0	---	0.00	29.732 
04:15	39.9	39.9	39.9	92	37.8	0	0	---	0.00	29.734 
04:20	39.9	39.9	39.9	92	37.8	0	0	---	0.00	29.734 
04:25	39.8	39.8	39.8	92	37.7	0	0	---	0.00	29.734 
04:30	39.8	39.8	39.8	92	37.7	0	0	---	0.00	29.735 
04:35	39.9	39.9	39.9	92	37.8	0	0	---	0.00	29.735 
04:40	40.1	40.1	40.1	92	38.0	0	0	---	0.00	29.735 
04:45	40.1	40.1	40.1	92	38.0	0	1	90	0.00	29.736 
04:50	40.1	40.1	40.1	92	38.0	0	1	90	0.00	29.736 
04:55	40.1	40.1	40.1	92	38.0	0	0	---	0.00	29.736 
05:00	40.2	40.2	40.2	92	38.1	0	0	---	0.00	29.739 
05:05	40.2	40.2	40.2	92	38.1	0	0	---	0.00	29.739 
05:10	40.3	40.3	40.3	92	38.2	0	0	---	0.00	29.739 
05:15	40.5	40.5	40.5	92	38.4	0	1	90	0.00	29.746 
05:20	40.5	40.5	40.5	92	38.4	0	0	---	0.00	29.746 
05:25	40.6	40.6	40.6	92	38.5	0	0	---	0.00	29.746 
05:30	40.8	40.8	40.8	92	38.7	0	0	---	0.00	29.749 
05:35	40.8	40.8	40.8	92	38.7	0	0	---	0.00	29.749 
05:40	40.9	40.9	40.9	92	38.8	0	1	90	0.00	29.749 
05:45	40.9	40.9	40.9	92	38.8	0	1	90	0.00	29.751 
05:50	41.1	41.1	41.1	92	39.0	0	0	---	0.00	29.751 
05:55	41.2	41.2	41.2	92	39.1	0	0	---	0.01	29.751 
06:00	41.3	41.3	41.3	92	39.2	0	1	90	0.00	29.752 
06:05	41.3	41.3	41.3	92	39.2	0	2	90	0.00	29.752 
06:10	41.5	41.5	41.5	92	39.4	0	0	---	0.00	29.752 
06:15	41.6	41.6	41.6	93	39.7	0	0	---	0.00	29.759 
06:20	41.8	41.8	41.8	93	39.9	0	0	---	0.00	29.759 
06:25	41.8	41.8	41.8	93	39.9	0	0	---	0.01	29.759 
06:30	41.9	41.9	41.9	93	40.0	0	0	---	0.00	29.765 
06:35	42.1	42.1	42.1	93	40.2	0	0	---	0.00	29.765 
06:40	42.1	42.1	42.1	93	40.2	0	1	90	0.00	29.765 
06:45	42.2	42.2	42.2	93	40.3	0	1	90	0.00	29.768 
06:50	42.3	42.3	42.3	93	40.4	0	0	---	0.00	29.768 
06:55	42.5	42.5	42.5	93	40.6	0	1	90	0.00	29.768 
07:00	42.6	42.6	42.6	93	40.7	0	1	90	0.00	29.772 
07:05	42.8	42.8	42.8	93	40.9	0	1	90	0.00	29.772 
07:10	42.9	42.9	42.9	93	41.0	0	2	90	0.00	29.772 
07:15	43.1	43.1	43.1	94	41.5	0	3	292	0.00	29.782 
07:20	43.3	43.3	43.3	94	41.7	0	2	292	0.00	29.782 
07:25	43.5	43.5	43.5	94	41.9	0	3	292	0.00	29.782 
07:30	43.8	43.8	43.8	94	42.2	0	2	292	0.00	29.782 
07:35	43.9	43.9	43.9	94	42.3	1	3	292	0.00	29.782 
07:40	44.2	44.2	44.2	94	42.6	0	2	292	0.00	29.782 
07:45	44.3	44.3	44.3	94	42.7	0	1	292	0.00	29.788 
07:50	44.5	44.5	44.5	94	42.9	0	2	292	0.00	29.788 
07:55	44.8	44.8	44.8	94	43.2	0	2	292	0.00	29.788 
08:00	44.9	44.9	44.9	94	43.3	0	2	292	0.00	29.796 
08:05	45.2	45.2	45.2	94	43.6	1	5	292	0.00	29.796 
08:10	45.5	45.5	45.5	94	43.9	1	3	292	0.00	29.796 
08:15	45.8	45.8	45.8	94	44.2	1	6	292	0.00	29.798 
08:20	46.1	46.1	46.1	94	44.5	0	3	292	0.00	29.798 
08:25	46.2	46.2	46.2	94	44.6	0	2	338	0.00	29.798 
08:30	46.7	46.7	46.7	94	45.1	0	1	338	0.00	29.804 
08:35	47.0	47.0	47.0	94	45.4	1	3	338	0.00	29.804 
08:40	47.1	47.1	47.1	93	45.2	1	4	0	0.00	29.804 
08:45	47.3	47.3	47.3	93	45.4	1	5	315	0.00	29.810 
08:50	47.1	47.1	47.1	92	44.9	1	4	338	0.00	29.810 
08:55	47.1	47.1	47.1	91	44.6	2	7	338	0.00	29.810 
09:00	47.7	47.7	47.7	91	45.2	1	4	315	0.00	29.820 
09:05	48.0	48.0	48.0	89	44.9	2	6	315	0.00	29.820 
09:10	48.3	48.3	48.3	88	44.9	1	5	248	0.00	29.820 
09:15	48.5	48.5	48.5	87	44.8	2	5	0	0.00	29.826 
09:20	48.9	48.9	48.9	87	45.2	2	7	315	0.00	29.826 
09:25	49.1	49.1	49.1	85	44.8	1	4	315	0.00	29.826 
09:30	49.2	49.2	49.2	85	44.9	0	4	315	0.00	29.832 
09:35	49.4	49.4	49.4	84	44.8	2	5	315	0.00	29.832 
09:40	50.1	50.1	50.1	82	44.8	1	6	270	0.00	29.832 
09:45	50.4	50.4	50.4	81	44.8	2	6	338	0.00	29.834 
09:50	50.5	50.5	50.5	80	44.6	2	6	315	0.00	29.834 
09:55	50.7	50.7	50.7	79	44.4	1	7	315	0.00	29.834 
10:00	51.4	51.4	51.4	79	45.1	1	5	90	0.00	29.841 
10:05	51.9	51.9	51.9	76	44.6	2	5	68	0.00	29.841 
10:10	52.0	52.0	52.0	75	44.3	1	7	0	0.00	29.841 
10:15	51.9	51.9	51.9	74	43.9	1	4	315	0.00	29.840 
10:20	51.7	51.7	51.7	75	44.0	1	5	338	0.00	29.840 
10:25	51.7	51.7	51.7	75	44.0	2	5	0	0.00	29.840 
10:30	52.0	52.0	52.0	77	45.0	1	4	292	0.00	29.842 
10:35	52.6	52.6	52.6	75	44.9	2	7	315	0.00	29.842 
10:40	53.2	53.2	53.2	74	45.1	2	6	338	0.00	29.842 
10:45	53.8	53.8	53.8	74	45.7	2	5	292	0.00	29.840 
10:50	54.4	54.4	54.4	73	45.9	2	6	0	0.00	29.840 
10:55	54.7	54.7	54.7	72	45.9	1	4	45	0.00	29.840 
11:00	55.3	55.3	55.3	72	46.4	2	7	338	0.00	29.840 
11:05	55.7	55.7	55.7	70	46.1	1	5	0	0.00	29.840 
11:10	56.3	56.3	56.3	70	46.6	1	5	292	0.00	29.840 
11:15	56.7	56.7	56.7	67	45.9	2	4	45	0.00	29.840 
11:20	57.0	57.0	57.0	69	46.9	1	4	22	0.00	29.840 
11:25	56.9	56.9	56.9	66	45.7	3	7	292	0.00	29.840 
11:30	56.9	56.9	56.9	69	46.8	2	5	292	0.00	29.844 
11:35	57.2	57.2	57.2	66	45.9	2	6	338	0.00	29.844 
11:40	57.5	57.5	57.5	65	45.8	1	5	90	0.00	29.844 
11:45	58.1	58.1	58.1	67	47.2	1	4	0	0.00	29.847 
11:50	58.4	58.4	58.4	64	46.3	2	6	292	0.00	29.847 
11:55	58.6	58.6	58.6	62	45.6	1	5	338	0.00	29.847 
12:00	58.7	58.7	58.7	62	45.7	2	6	338	0.00	29.846 
12:05	58.4	58.4	58.4	60	44.6	2	5	0	0.00	29.846 
12:10	58.6	58.6	58.6	62	45.6	1	6	45	0.00	29.846 
12:15	59.2	59.2	59.2	62	46.2	2	7	315	0.00	29.848 
12:20	59.5	59.5	59.5	58	44.7	2	6	68	0.00	29.848 
12:25	59.9	59.9	59.9	61	46.4	1	4	0	0.00	29.848 
12:30	60.5	60.5	60.5	58	45.6	1	4	22	0.00	29.848 
12:35	61.0	61.0	61.0	57	45.7	1	6	45	0.00	29.848 
12:40	61.0	61.0	61.0	56	45.2	2	6	22	0.00	29.848 
12:45	61.3	61.3	61.3	57	45.9	1	4	0	0.00	29.847 
12:50	61.2	61.2	61.2	56	45.4	2	10	22	0.00	29.847 
12:55	61.2	61.2	61.2	55	44.9	2	6	338	0.00	29.847 
13:00	61.2	61.2	61.2	56	45.4	2	7	292	0.00	29.847 
13:05	61.3	61.3	61.3	56	45.5	1	3	22	0.00	29.847 
13:10	61.2	61.2	61.2	55	44.9	1	5	68	0.00	29.847 
13:15	61.3	61.3	61.3	55	45.0	2	5	45	0.00	29.843 
13:20	62.1	62.1	62.1	54	45.3	1	5	22	0.00	29.843 
13:25	61.8	61.8	61.8	51	43.5	2	5	22	0.00	29.843 
13:30	61.5	61.5	61.5	52	43.7	2	6	292	0.00	29.844 
13:35	62.0	62.0	62.0	51	43.7	3	7	338	0.00	29.844 
13:40	62.6	62.6	62.6	51	44.2	1	4	90	0.00	29.844 
13:45	63.2	63.2	63.2	49	43.7	2	12	112	0.00	29.839 
13:50	62.7	62.7	62.7	49	43.3	1	3	68	0.00	29.839 
13:55	62.7	62.7	62.7	51	44.3	2	4	0	0.00	29.839 
14:00	63.5	63.5	63.5	48	43.5	3	9	112	0.00	29.837 
14:05	63.9	63.9	63.9	45	42.1	2	7	112	0.00	29.837 
14:10	63.7	63.7	63.7	48	43.6	1	5	338	0.00	29.837 
14:15	64.0	64.0	64.0	49	44.5	1	4	90	0.00	29.834 
14:20	64.0	64.0	64.0	47	43.4	3	9	338	0.00	29.834 
14:25	63.2	63.2	63.2	48	43.2	1	6	338	0.00	29.834 
14:30	62.4	62.4	62.4	47	41.9	2	9	0	0.00	29.841 
14:35	62.4	62.4	62.4	49	43.0	1	5	112	0.00	29.841 
14:40	63.2	63.2	63.2	50	44.2	2	6	90	0.00	29.841 
14:45	63.7	63.7	63.7	47	43.1	2	5	315	0.00	29.839 
14:50	63.5	63.5	63.5	46	42.3	1	5	270	0.00	29.839 
14:55	63.5	63.5	63.5	46	42.3	1	5	68	0.00	29.839 
15:00	63.4	63.4	63.4	47	42.8	1	4	45	0.00	29.844 
15:05	63.4	63.4	63.4	47	42.8	1	5	90	0.00	29.844 
15:10	63.5	63.5	63.5	44	41.2	1	5	45	0.00	29.844 
15:15	63.1	63.1	63.1	46	42.0	1	3	90	0.00	29.844 
15:20	62.6	62.6	62.6	49	43.2	1	5	68	0.00	29.844 
15:25	63.1	63.1	63.1	49	43.6	1	5	315	0.00	29.844 
15:30	63.2	63.2	63.2	46	42.1	1	5	315	0.00	29.842 
15:35	63.2	63.2	63.2	45	41.5	1	4	45	0.00	29.842 
15:40	63.2	63.2	63.2	47	42.6	1	6	68	0.00	29.842 
15:45	63.4	63.4	63.4	45	41.7	1	5	315	0.00	29.842 
15:50	63.2	63.2	63.2	46	42.1	1	7	45	0.00	29.842 
15:55	64.0	64.0	64.0	44	41.6	2	6	338	0.00	29.842 
16:00	64.8	64.8	64.8	43	41.8	1	5	22	0.00	29.839 
16:05	65.3	65.3	65.3	41	41.0	2	5	0	0.00	29.839 
16:10	65.2	65.2	65.2	42	41.5	2	6	338	0.00	29.839 
16:15	64.8	64.8	64.8	41	40.5	1	4	22	0.00	29.839 
16:20	64.7	64.7	64.7	45	42.9	1	6	45	0.00	29.839 
16:25	64.5	64.5	64.5	42	40.9	1	4	45	0.00	29.839 
16:30	64.0	64.0	64.0	42	40.4	1	5	45	0.00	29.834 
16:35	64.2	64.2	64.2	47	43.5	1	2	45	0.00	29.834 
16:40	64.8	64.8	64.8	44	42.4	1	4	0	0.00	29.834 
16:45	65.5	65.5	65.5	38	39.2	2	7	22	0.00	29.832 
16:50	66.0	66.0	66.0	41	41.6	0	3	68	0.00	29.832 
16:55	65.8	65.8	65.8	40	40.8	2	7	0	0.00	29.832 
17:00	65.8	65.8	65.8	40	40.8	2	9	0	0.00	29.828 
17:05	66.6	66.6	66.6	41	42.2	1	3	22	0.00	29.828 
17:10	67.1	67.1	67.1	41	42.6	2	5	315	0.00	29.828 
17:15	66.9	66.9	66.9	39	41.1	2	7	0	0.00	29.829 
17:20	66.1	66.1	66.1	36	38.4	3	13	292	0.00	29.829 
17:25	65.2	65.2	65.2	39	39.6	2	6	338	0.00	29.829 
17:30	64.7	64.7	64.7	40	39.8	2	6	338	0.00	29.832 
17:35	65.0	65.0	65.0	41	40.7	1	3	45	0.00	29.832 
17:40	64.8	64.8	64.8	41	40.5	1	6	270	0.00	29.832 
17:45	64.3	64.3	64.3	41	40.1	1	2	45	0.00	29.831 
17:50	64.0	64.0	64.0	43	41.1	1	3	45	0.00	29.831 
17:55	64.2	64.2	64.2	42	40.6	1	5	45	0.00	29.831 
18:00	64.3	64.3	64.3	42	40.7	1	5	292	0.00	29.835 
18:05	64.7	64.7	64.7	41	40.5	1	6	68	0.00	29.835 
18:10	64.5	64.5	64.5	40	39.6	2	4	22	0.00	29.835 
18:15	64.2	64.2	64.2	39	38.7	2	6	338	0.00	29.835 
18:20	64.2	64.2	64.2	42	40.6	1	4	270	0.00	29.835 
18:25	64.0	64.0	64.0	41	39.8	1	5	45	0.00	29.835 
18:30	63.9	63.9	63.9	42	40.4	1	4	90	0.00	29.835 
18:35	63.9	63.9	63.9	43	41.0	1	4	45	0.00	29.835 
18:40	63.9	63.9	63.9	44	41.6	0	3	68	0.00	29.835 
18:45	63.7	63.7	63.7	43	40.8	0	3	68	0.00	29.835 
18:50	63.5	63.5	63.5	43	40.6	0	2	68	0.00	29.835 
18:55	63.4	63.4	63.4	42	39.9	1	4	338	0.00	29.835 
19:00	63.2	63.2	63.2	42	39.7	0	2	338	0.00	29.836 
19:05	63.1	63.1	63.1	41	39.0	1	5	338	0.00	29.836 
19:10	62.9	62.9	62.9	40	38.2	1	5	315	0.00	29.836 
19:15	62.9	62.9	62.9	42	39.5	1	5	338	0.00	29.839 
19:20	62.7	62.7	62.7	43	39.9	1	4	315	0.00	29.839 
19:25	62.9	62.9	62.9	42	39.5	1	4	315	0.00	29.839 
19:30	63.1	63.1	63.1	42	39.6	1	6	315	0.00	29.840 
19:35	63.1	63.1	63.1	42	39.6	1	4	90	0.00	29.840 
19:40	62.7	62.7	62.7	42	39.3	1	4	0	0.00	29.840 
19:45	62.4	62.4	62.4	43	39.6	0	1	292	0.00	29.844 
19:50	62.1	62.1	62.1	43	39.3	0	3	292	0.00	29.844 
19:55	62.0	62.0	62.0	43	39.2	0	3	292	0.00	29.844 
20:00	61.6	61.6	61.6	44	39.5	0	2	292	0.00	29.848 
20:05	61.3	61.3	61.3	45	39.8	0	1	292	0.00	29.848 
20:10	61.2	61.2	61.2	45	39.7	0	1	292	0.00	29.848 
20:15	60.9	60.9	60.9	46	40.0	0	1	292	0.00	29.852 
20:20	60.7	60.7	60.7	46	39.8	0	2	292	0.00	29.852 
20:25	60.5	60.5	60.5	47	40.2	0	1	292	0.00	29.852 
20:30	60.2	60.2	60.2	47	39.9	0	0	---	0.00	29.854 
20:35	60.1	60.1	60.1	47	39.8	0	0	---	0.00	29.854 
20:40	59.8	59.8	59.8	48	40.1	0	0	---	0.00	29.854 
20:45	59.5	59.5	59.5	49	40.3	0	1	292	0.00	29.856 
20:50	59.2	59.2	59.2	49	40.0	0	1	292	0.00	29.856 
20:55	58.9	58.9	58.9	50	40.3	0	0	---	0.00	29.856 
21:00	58.6	58.6	58.6	51	40.5	0	0	---	0.00	29.858 
21:05	58.3	58.3	58.3	51	40.3	0	1	292	0.00	29.858 
21:10	58.1	58.1	58.1	52	40.6	0	1	292	0.00	29.858 
21:15	58.1	58.1	58.1	54	41.5	1	3	292	0.00	29.864 
21:20	58.3	58.3	58.3	57	43.1	1	3	292	0.00	29.864 
21:25	58.4	58.4	58.4	61	45.0	1	4	292	0.00	29.864 
21:30	58.6	58.6	58.6	62	45.6	1	4	292	0.00	29.870 
21:35	58.7	58.7	58.7	62	45.7	1	5	292	0.00	29.870 
21:40	58.9	58.9	58.9	62	45.9	1	4	292	0.00	29.870 
21:45	58.9	58.9	58.9	62	45.9	1	3	292	0.00	29.872 
21:50	58.9	58.9	58.9	62	45.9	1	4	292	0.00	29.872 
21:55	58.7	58.7	58.7	62	45.7	1	5	292	0.00	29.872 
22:00	58.6	58.6	58.6	61	45.2	1	3	292	0.00	29.877 
22:05	58.4	58.4	58.4	62	45.4	1	3	292	0.00	29.877 
22:10	58.1	58.1	58.1	62	45.1	1	3	292	0.00	29.877 
22:15	57.8	57.8	57.8	62	44.9	1	6	292	0.00	29.882 
22:20	57.6	57.6	57.6	63	45.1	1	3	292	0.00	29.882 
22:25	57.3	57.3	57.3	63	44.8	1	3	292	0.00	29.882 
22:30	57.0	57.0	57.0	63	44.5	2	6	292	0.00	29.888 
22:35	56.9	56.9	56.9	63	44.4	2	5	292	0.00	29.888 
22:40	56.6	56.6	56.6	63	44.2	1	5	292	0.00	29.888 
22:45	56.3	56.3	56.3	64	44.3	1	3	270	0.00	29.896 
22:50	56.0	56.0	56.0	63	43.6	3	7	292	0.00	29.896 
22:55	55.9	55.9	55.9	63	43.5	1	4	292	0.00	29.896 
23:00	55.6	55.6	55.6	63	43.2	1	6	292	0.00	29.902 
23:05	55.3	55.3	55.3	64	43.3	1	4	292	0.00	29.902 
23:10	55.1	55.1	55.1	64	43.1	1	6	292	0.00	29.902 
23:15	55.0	55.0	55.0	64	43.0	0	2	315	0.00	29.899 
23:20	54.7	54.7	54.7	64	42.8	1	4	315	0.00	29.899 
23:25	54.5	54.5	54.5	64	42.6	0	2	315	0.00	29.899 
23:30	54.2	54.2	54.2	68	43.9	0	3	315	0.00	29.900 
23:35	54.1	54.1	54.1	63	41.8	1	4	270	0.00	29.900 
23:40	53.9	53.9	53.9	63	41.6	0	3	270	0.00	29.900 
23:45	53.9	53.9	53.9	62	41.2	1	5	270	0.00	29.901 
23:50	53.8	53.8	53.8	62	41.1	1	6	270	0.00	29.901 
23:55	53.8	53.8	53.8	62	41.1	1	5	292	0.00	29.901 

CoCoRaHS
IN-AL-39
A2 Web Hosting
Creative Commons License
GoDaddy
search engine by freefind advanced

loaded 2018-11-17 18:17:14 • last modified 2010-11-18 10:43:29
Privacy PolicyDisclaimer
• wx.awcolley.com is powered by PmWiki v.2002016 •
• all content (unless otherwise noted) © 2018 A W Colley